Wetterdaten: Woche 17.12.01 - 23.12.01 (KW51)
Datum Zeit Temperatur Luftfeuchte Luftdruck Regenmenge Wind Richtung Taupunkt Windchill
17.12.2001 00:00 -5.3 C 72 % 1029.5 hPa 0.0 l/m 0.2 km/h (0 Bft) N -9.6 C -5.3 C
17.12.2001 01:00 -5.0 C 72 % 1029.5 hPa 0.0 l/m 0.3 km/h (0 Bft) N-NO -9.2 C -5.0 C
17.12.2001 02:00 -4.4 C 71 % 1029.5 hPa 0.0 l/m 0.8 km/h (0 Bft) N-NO -8.8 C -4.5 C
17.12.2001 03:00 -4.7 C 70 % 1029.5 hPa 0.0 l/m 1.8 km/h (1 Bft) NO -9.3 C -5.0 C
17.12.2001 04:00 -5.1 C 70 % 1029.5 hPa 0.0 l/m 0.6 km/h (0 Bft) NO -9.7 C -5.1 C
17.12.2001 05:00 -5.7 C 72 % 1029.5 hPa 0.0 l/m 0.0 km/h (0 Bft) N -9.9 C -5.7 C
17.12.2001 06:00 -7.0 C 78 % 1029.5 hPa 0.0 l/m 1.7 km/h (1 Bft) O-SO -10.2 C -7.2 C
17.12.2001 07:00 -6.8 C 81 % 1030.5 hPa 0.0 l/m 3.1 km/h (1 Bft) O-SO -9.6 C -8.2 C
17.12.2001 08:00 -5.3 C 77 % 1030.5 hPa 0.0 l/m 3.1 km/h (1 Bft) O-SO -8.8 C -6.7 C
17.12.2001 09:00 -4.3 C 71 % 1031.4 hPa 0.0 l/m 0.0 km/h (0 Bft) N -8.8 C -4.3 C
17.12.2001 10:00 -3.5 C 70 % 1031.6 hPa 0.0 l/m 0.0 km/h (0 Bft) N -8.2 C -3.5 C
17.12.2001 11:00 -3.1 C 66 % 1031.2 hPa 0.0 l/m 2.8 km/h (1 Bft) O-SO -8.5 C -4.0 C
17.12.2001 12:00 -2.3 C 68 % 1030.5 hPa 0.0 l/m 16.5 km/h (3 Bft) O-SO -7.5 C -7.5 C
17.12.2001 13:00 -1.3 C 66 % 1030.2 hPa 0.0 l/m 14.5 km/h (3 Bft) O-SO -6.9 C -5.9 C
17.12.2001 14:00 -1.0 C 65 % 1029.5 hPa 0.0 l/m 10.5 km/h (2 Bft) O-SO -6.7 C -4.6 C
17.12.2001 15:00 -1.5 C 67 % 1029.5 hPa 0.0 l/m 9.1 km/h (2 Bft) O-SO -6.9 C -4.7 C
17.12.2001 16:00 -2.6 C 70 % 1029.5 hPa 0.0 l/m 5.5 km/h (1 Bft) O-SO -7.3 C -4.5 C
17.12.2001 17:00 -4.2 C 75 % 1029.5 hPa 0.0 l/m 3.6 km/h (1 Bft) O-SO -8.0 C -5.3 C
17.12.2001 18:00 -4.2 C 76 % 1030.5 hPa 0.0 l/m 1.2 km/h (1 Bft) O-SO -7.9 C -4.6 C
17.12.2001 19:00 -5.3 C 79 % 1030.5 hPa 0.0 l/m 1.4 km/h (1 Bft) O-SO -8.3 C -5.4 C
17.12.2001 20:00 -5.9 C 80 % 1030.5 hPa 0.0 l/m 5.8 km/h (2 Bft) O-SO -8.7 C -8.4 C
17.12.2001 21:00 -6.8 C 81 % 1030.5 hPa 0.0 l/m 1.3 km/h (1 Bft) O-SO -9.5 C -7.4 C
17.12.2001 22:00 -6.9 C 83 % 1030.5 hPa 0.0 l/m 0.2 km/h (0 Bft) O-SO -9.4 C -6.9 C
17.12.2001 23:00 -7.8 C 83 % 1030.5 hPa 0.0 l/m 0.0 km/h (0 Bft) N -10.1 C -7.8 C
18.12.2001 00:00 -8.1 C 84 % 1030.5 hPa 0.0 l/m 0.0 km/h (0 Bft) N -10.3 C -8.1 C
18.12.2001 01:00 -8.1 C 84 % 1030.4 hPa 0.0 l/m 0.0 km/h (0 Bft) N -10.3 C -8.1 C
18.12.2001 02:00 -6.9 C 87 % 1029.6 hPa 0.0 l/m 0.0 km/h (0 Bft) N -8.8 C -6.9 C
18.12.2001 03:00 -7.0 C 85 % 1029.6 hPa 0.0 l/m 0.0 km/h (0 Bft) N -9.0 C -7.0 C
18.12.2001 04:00 -6.8 C 86 % 1029.5 hPa 0.0 l/m 0.0 km/h (0 Bft) N -8.8 C -6.8 C
18.12.2001 05:00 -5.9 C 87 % 1029.5 hPa 0.0 l/m 0.0 km/h (0 Bft) N -7.7 C -5.9 C
18.12.2001 06:00 -5.4 C 86 % 1029.5 hPa 0.0 l/m 0.0 km/h (0 Bft) N -7.3 C -5.4 C
18.12.2001 07:00 -5.0 C 86 % 1029.7 hPa 0.0 l/m 0.0 km/h (0 Bft) N -6.9 C -5.0 C
18.12.2001 08:00 -4.5 C 86 % 1030.5 hPa 0.0 l/m 0.0 km/h (0 Bft) N -6.5 C -4.5 C
18.12.2001 09:00 -3.4 C 83 % 1030.5 hPa 0.0 l/m 0.0 km/h (0 Bft) N -5.9 C -3.4 C
18.12.2001 10:00 -1.8 C 78 % 1030.5 hPa 0.0 l/m 1.0 km/h (0 Bft) O -5.2 C -2.0 C
18.12.2001 11:00 -0.5 C 70 % 1030.5 hPa 0.0 l/m 2.1 km/h (1 Bft) O -5.3 C -1.0 C
18.12.2001 12:00 0.1 C 66 % 1030.0 hPa 0.0 l/m 3.1 km/h (1 Bft) O-SO -5.6 C -0.7 C
18.12.2001 13:00 0.0 C 63 % 1029.8 hPa 0.0 l/m 3.7 km/h (1 Bft) O-SO -6.2 C -1.0 C
18.12.2001 14:00 -0.2 C 62 % 1029.6 hPa 0.0 l/m 2.1 km/h (1 Bft) SO -6.5 C -0.7 C
18.12.2001 15:00 -0.7 C 64 % 1030.5 hPa 0.0 l/m 1.4 km/h (1 Bft) O-SO -6.6 C -1.0 C
18.12.2001 16:00 -1.1 C 65 % 1030.5 hPa 0.0 l/m 0.6 km/h (0 Bft) O -6.8 C -1.3 C
18.12.2001 17:00 -1.3 C 66 % 1030.5 hPa 0.0 l/m 1.3 km/h (1 Bft) O-SO -6.9 C -1.6 C
18.12.2001 18:00 -1.5 C 67 % 1030.6 hPa 0.0 l/m 1.2 km/h (1 Bft) SO -6.8 C -1.8 C
18.12.2001 19:00 -1.6 C 67 % 1031.6 hPa 0.0 l/m 0.8 km/h (0 Bft) O-SO -6.9 C -1.7 C
18.12.2001 20:00 -1.7 C 67 % 1031.6 hPa 0.0 l/m 2.5 km/h (1 Bft) O-SO -7.0 C -2.5 C
18.12.2001 21:00 -1.8 C 68 % 1031.6 hPa 0.0 l/m 2.0 km/h (1 Bft) O-SO -6.9 C -2.4 C
18.12.2001 22:00 -1.9 C 68 % 1031.6 hPa 0.0 l/m 2.0 km/h (1 Bft) O-SO -7.0 C -2.5 C
18.12.2001 23:00 -2.0 C 67 % 1030.9 hPa 0.0 l/m 1.2 km/h (1 Bft) O-SO -7.3 C -2.4 C
19.12.2001 00:00 -2.1 C 67 % 1030.5 hPa 0.0 l/m 0.1 km/h (0 Bft) NO -7.4 C -2.1 C
19.12.2001 01:00 -2.2 C 67 % 1030.5 hPa 0.0 l/m 0.1 km/h (0 Bft) N -7.5 C -2.2 C
19.12.2001 02:00 -2.4 C 68 % 1030.5 hPa 0.0 l/m 0.2 km/h (0 Bft) N -7.5 C -2.4 C
19.12.2001 03:00 -2.5 C 68 % 1030.5 hPa 0.0 l/m 0.0 km/h (0 Bft) N -7.6 C -2.5 C
19.12.2001 04:00 -2.7 C 69 % 1030.5 hPa 0.0 l/m 0.0 km/h (0 Bft) N -7.6 C -2.7 C
19.12.2001 05:00 -2.8 C 69 % 1029.5 hPa 0.0 l/m 0.1 km/h (0 Bft) N -7.7 C -2.8 C
19.12.2001 06:00 -3.0 C 69 % 1029.5 hPa 0.0 l/m 0.0 km/h (0 Bft) N -7.9 C -3.0 C
19.12.2001 07:00 -3.2 C 70 % 1029.5 hPa 0.0 l/m 0.0 km/h (0 Bft) N -7.8 C -3.2 C
19.12.2001 08:00 -3.2 C 70 % 1029.8 hPa 0.0 l/m 1.1 km/h (0 Bft) O-SO -7.9 C -3.6 C
19.12.2001 09:00 -3.0 C 69 % 1030.4 hPa 0.0 l/m 0.3 km/h (0 Bft) O-SO -7.9 C -3.1 C
19.12.2001 10:00 -2.9 C 69 % 1030.2 hPa 0.0 l/m 0.2 km/h (0 Bft) O-SO -7.8 C -2.9 C
19.12.2001 11:00 -2.9 C 69 % 1029.5 hPa 0.0 l/m 0.9 km/h (0 Bft) O-SO -7.7 C -3.1 C
19.12.2001 12:00 -3.0 C 70 % 1028.9 hPa 0.0 l/m 0.2 km/h (0 Bft) N -7.7 C -3.0 C
19.12.2001 13:00 -2.9 C 69 % 1027.9 hPa 0.0 l/m 0.2 km/h (0 Bft) N-NW -7.7 C -2.9 C
19.12.2001 14:00 -2.8 C 69 % 1026.9 hPa 0.0 l/m 2.7 km/h (1 Bft) O-SO -7.7 C -3.8 C
19.12.2001 15:00 -3.0 C 70 % 1026.4 hPa 0.0 l/m 2.4 km/h (1 Bft) SO -7.7 C -3.8 C
19.12.2001 16:00 -3.3 C 71 % 1025.4 hPa 0.0 l/m 1.0 km/h (0 Bft) O-SO -7.8 C -3.5 C
19.12.2001 17:00 -3.3 C 71 % 1025.3 hPa 0.0 l/m 0.5 km/h (0 Bft) W-NW -7.8 C -3.4 C
19.12.2001 18:00 -3.4 C 71 % 1025.1 hPa 0.0 l/m 0.0 km/h (0 Bft) N -7.9 C -3.4 C
19.12.2001 19:00 -3.4 C 70 % 1025.3 hPa 0.0 l/m 1.9 km/h (1 Bft) W-NW -8.2 C -3.9 C
19.12.2001 20:00 -3.5 C 71 % 1024.3 hPa 0.0 l/m 1.2 km/h (1 Bft) W-NW -8.1 C -3.8 C
19.12.2001 21:00 -3.6 C 71 % 1024.3 hPa 0.0 l/m 1.0 km/h (0 Bft) SO -8.0 C -3.7 C
19.12.2001 22:00 -3.5 C 71 % 1023.6 hPa 0.0 l/m 0.9 km/h (0 Bft) W -8.0 C -3.8 C
19.12.2001 23:00 -3.6 C 70 % 1023.3 hPa 0.0 l/m 1.6 km/h (1 Bft) W -8.2 C -4.0 C
20.12.2001 00:00 -3.6 C 70 % 1023.3 hPa 0.0 l/m 2.4 km/h (1 Bft) S -8.2 C -4.2 C
20.12.2001 01:00 -3.7 C 71 % 1023.3 hPa 0.0 l/m 5.0 km/h (1 Bft) S -8.2 C -5.1 C
20.12.2001 02:00 -3.8 C 71 % 1023.3 hPa 0.0 l/m 5.0 km/h (1 Bft) SW -8.3 C -5.3 C
20.12.2001 03:00 -3.9 C 71 % 1022.8 hPa 0.0 l/m 7.7 km/h (2 Bft) S -8.5 C -6.7 C
20.12.2001 04:00 -3.9 C 72 % 1022.2 hPa 0.0 l/m 5.7 km/h (1 Bft) S-SO -8.2 C -5.7 C
20.12.2001 05:00 -3.8 C 73 % 1022.2 hPa 0.0 l/m 7.6 km/h (2 Bft) SO -8.0 C -6.6 C
20.12.2001 06:00 -3.9 C 75 % 1022.2 hPa 0.0 l/m 10.3 km/h (2 Bft) SO -7.6 C -7.2 C
20.12.2001 07:00 -3.8 C 75 % 1023.2 hPa 0.0 l/m 4.0 km/h (1 Bft) SW -7.6 C -5.2 C
20.12.2001 08:00 -3.6 C 73 % 1023.3 hPa 0.0 l/m 5.5 km/h (1 Bft) S -7.7 C -5.5 C
20.12.2001 09:00 -3.6 C 78 % 1023.5 hPa 0.0 l/m 2.6 km/h (1 Bft) S -6.9 C -4.3 C
20.12.2001 10:00 -3.3 C 81 % 1024.3 hPa 0.0 l/m 0.4 km/h (0 Bft) N -6.1 C -3.3 C
20.12.2001 11:00 -2.9 C 81 % 1024.1 hPa 0.0 l/m 0.3 km/h (0 Bft) S-SO -5.7 C -2.9 C
20.12.2001 12:00 -2.2 C 78 % 1023.3 hPa 0.0 l/m 1.0 km/h (0 Bft) SO -5.4 C -2.4 C
20.12.2001 13:00 -1.9 C 77 % 1023.3 hPa 0.0 l/m 0.2 km/h (0 Bft) W-NW -5.3 C -1.9 C
20.12.2001 14:00 -1.8 C 77 % 1023.3 hPa 0.0 l/m 1.1 km/h (1 Bft) W-NW -5.3 C -1.8 C
20.12.2001 15:00 -2.5 C 80 % 1023.3 hPa 0.0 l/m 0.1 km/h (0 Bft) N -5.4 C -2.5 C
20.12.2001 16:00 -4.1 C 85 % 1023.3 hPa 0.0 l/m 0.0 km/h (0 Bft) O -6.3 C -4.1 C
20.12.2001 17:00 -5.5 C 88 % 1023.3 hPa 0.0 l/m 4.8 km/h (1 Bft) O-SO -7.2 C -7.1 C
20.12.2001 18:00 -6.4 C 87 % 1023.6 hPa 0.0 l/m 5.6 km/h (1 Bft) O-SO -8.2 C -8.8 C
20.12.2001 19:00 -7.6 C 85 % 1024.3 hPa 0.0 l/m 2.2 km/h (1 Bft) O-SO -9.6 C -8.4 C
20.12.2001 20:00 -8.0 C 85 % 1024.2 hPa 0.0 l/m 0.2 km/h (0 Bft) N -10.0 C -8.1 C
20.12.2001 21:00 -6.7 C 88 % 1023.5 hPa 0.0 l/m 1.6 km/h (1 Bft) O-SO -8.4 C -7.5 C
20.12.2001 22:00 -7.0 C 89 % 1023.3 hPa 0.0 l/m 3.9 km/h (1 Bft) O-SO -8.6 C -8.3 C
20.12.2001 23:00 -7.3 C 88 % 1023.3 hPa 0.0 l/m 0.1 km/h (0 Bft) N -8.9 C -7.3 C
21.12.2001 00:00 -7.6 C 88 % 1023.3 hPa 0.0 l/m 0.1 km/h (0 Bft) NW -9.3 C -7.6 C
21.12.2001 01:00 -7.9 C 87 % 1023.0 hPa 0.0 l/m 0.3 km/h (0 Bft) W-NW -9.7 C -8.0 C
21.12.2001 02:00 -8.2 C 85 % 1022.9 hPa 0.0 l/m 1.7 km/h (1 Bft) O-SO -10.2 C -8.6 C
21.12.2001 03:00 -8.4 C 85 % 1022.2 hPa 0.0 l/m 4.3 km/h (1 Bft) O-SO -10.5 C -10.1 C
21.12.2001 04:00 -8.4 C 84 % 1022.2 hPa 0.0 l/m 1.3 km/h (1 Bft) O-SO -10.6 C -8.9 C
21.12.2001 05:00 -8.0 C 85 % 1022.0 hPa 0.0 l/m 0.5 km/h (0 Bft) O-SO -10.0 C -8.0 C
21.12.2001 06:00 -7.6 C 85 % 1021.2 hPa 0.0 l/m 0.2 km/h (0 Bft) O-SO -9.6 C -7.6 C
21.12.2001 07:00 -7.1 C 86 % 1021.2 hPa 0.0 l/m 0.1 km/h (0 Bft) N -9.1 C -7.1 C
21.12.2001 08:00 -7.4 C 85 % 1021.2 hPa 0.0 l/m 3.0 km/h (1 Bft) SO -9.6 C -8.7 C
21.12.2001 09:00 -7.9 C 83 % 1021.2 hPa 0.0 l/m 8.2 km/h (2 Bft) SO -10.2 C -11.5 C
21.12.2001 10:00 -7.7 C 81 % 1021.2 hPa 0.0 l/m 4.5 km/h (1 Bft) S -10.3 C -9.5 C
21.12.2001 11:00 -6.4 C 79 % 1020.2 hPa 0.0 l/m 8.9 km/h (2 Bft) SO -9.4 C -9.8 C
21.12.2001 12:00 -5.1 C 77 % 1019.1 hPa 0.0 l/m 10.2 km/h (2 Bft) W-SW -8.5 C -8.9 C
21.12.2001 13:00 -3.4 C 73 % 1018.1 hPa 0.0 l/m 10.6 km/h (2 Bft) SO -7.5 C -7.0 C
21.12.2001 14:00 -2.2 C 70 % 1017.0 hPa 0.0 l/m 4.6 km/h (1 Bft) W -7.0 C -3.7 C
21.12.2001 15:00 -2.1 C 69 % 1016.0 hPa 0.0 l/m 1.0 km/h (0 Bft) W -7.1 C -2.2 C
21.12.2001 16:00 -2.4 C 69 % 1015.3 hPa 0.0 l/m 2.4 km/h (1 Bft) W -7.2 C -3.1 C
21.12.2001 17:00 -2.6 C 71 % 1014.9 hPa 0.0 l/m 0.2 km/h (0 Bft) W -7.1 C -2.6 C
21.12.2001 18:00 -2.1 C 70 % 1014.5 hPa 0.0 l/m 12.3 km/h (3 Bft) W-NW -6.9 C -5.4 C
21.12.2001 19:00 -2.4 C 75 % 1014.1 hPa 0.0 l/m 22.3 km/h (4 Bft) W-NW -6.2 C -8.3 C
21.12.2001 20:00 -2.8 C 82 % 1013.2 hPa 0.0 l/m 7.3 km/h (2 Bft) W -5.3 C -5.2 C
21.12.2001 21:00 -2.5 C 83 % 1012.8 hPa 0.0 l/m 2.0 km/h (1 Bft) SO -5.0 C -2.9 C
21.12.2001 22:00 -2.5 C 83 % 1011.4 hPa 0.0 l/m 2.9 km/h (1 Bft) W -5.0 C -3.3 C
21.12.2001 23:00 -1.9 C 77 % 1010.6 hPa 0.3 l/m 6.4 km/h (2 Bft) W-NW -5.4 C -3.9 C
22.12.2001 00:00 -1.7 C 77 % 1009.7 hPa 0.0 l/m 8.3 km/h (2 Bft) W -5.3 C -4.3 C
22.12.2001 01:00 -2.4 C 85 % 1009.1 hPa 0.6 l/m 1.2 km/h (1 Bft) SW -4.5 C -2.6 C
22.12.2001 02:00 -2.3 C 88 % 1008.5 hPa 0.9 l/m 7.4 km/h (2 Bft) SW -4.0 C -4.5 C
22.12.2001 03:00 -2.1 C 90 % 1007.6 hPa 0.9 l/m 6.7 km/h (2 Bft) S -3.5 C -4.2 C
22.12.2001 04:00 -2.0 C 90 % 1006.9 hPa 1.3 l/m 6.1 km/h (2 Bft) SW -3.4 C -4.0 C
22.12.2001 05:00 -1.9 C 92 % 1006.6 hPa 0.6 l/m 0.8 km/h (0 Bft) W -3.0 C -2.0 C
22.12.2001 06:00 -1.8 C 94 % 1006.6 hPa 1.3 l/m 0.0 km/h (0 Bft) N -2.6 C -1.8 C
22.12.2001 07:00 -1.7 C 95 % 1006.6 hPa 1.3 l/m 0.0 km/h (0 Bft) N -2.3 C -1.7 C
22.12.2001 08:00 -1.2 C 95 % 1006.6 hPa 0.6 l/m 0.0 km/h (0 Bft) N -1.9 C -1.2 C
22.12.2001 09:00 -0.8 C 91 % 1007.5 hPa 0.3 l/m 0.0 km/h (0 Bft) N -2.1 C -0.8 C
22.12.2001 10:00 -0.7 C 91 % 1007.6 hPa 0.0 l/m 0.0 km/h (0 Bft) N -2.0 C -0.7 C
22.12.2001 11:00 -0.4 C 88 % 1007.5 hPa 0.3 l/m 0.0 km/h (0 Bft) N -2.2 C -0.4 C
22.12.2001 12:00 -0.3 C 88 % 1006.6 hPa 0.0 l/m 7.8 km/h (2 Bft) W-NW -2.1 C -2.8 C
22.12.2001 13:00 -0.2 C 88 % 1006.6 hPa 0.0 l/m 2.6 km/h (1 Bft) W-NW -1.9 C -0.7 C
22.12.2001 14:00 0.0 C 86 % 1006.6 hPa 0.0 l/m 12.1 km/h (2 Bft) W-NW -2.0 C -3.5 C
22.12.2001 15:00 -0.1 C 86 % 1006.6 hPa 0.0 l/m 21.7 km/h (4 Bft) W-NW -2.2 C -5.5 C
22.12.2001 16:00 -0.3 C 85 % 1006.6 hPa 0.0 l/m 24.2 km/h (4 Bft) W-NW -2.5 C -6.0 C
22.12.2001 17:00 -0.8 C 86 % 1006.6 hPa 0.0 l/m 23.0 km/h (4 Bft) W-NW -3.0 C -6.6 C
22.12.2001 18:00 -1.2 C 84 % 1006.6 hPa 0.0 l/m 23.6 km/h (4 Bft) W-NW -3.6 C -7.1 C
22.12.2001 19:00 -1.5 C 83 % 1006.6 hPa 0.0 l/m 23.4 km/h (4 Bft) NW -4.0 C -7.4 C
22.12.2001 20:00 -1.9 C 81 % 1006.6 hPa 0.0 l/m 36.9 km/h (5 Bft) W-NW -4.8 C -9.6 C
22.12.2001 21:00 -2.2 C 80 % 1007.6 hPa 0.0 l/m 35.6 km/h (5 Bft) W-NW -5.2 C -9.9 C
22.12.2001 22:00 -2.5 C 79 % 1007.6 hPa 0.0 l/m 35.6 km/h (5 Bft) NW -5.6 C -10.3 C
22.12.2001 23:00 -3.2 C 80 % 1008.4 hPa 0.0 l/m 26.6 km/h (4 Bft) NW -6.2 C -10.2 C
23.12.2001 00:00 -3.4 C 84 % 1008.7 hPa 0.0 l/m 13.6 km/h (3 Bft) NW -5.8 C -7.7 C
23.12.2001 01:00 -3.7 C 83 % 1009.0 hPa 0.0 l/m 15.2 km/h (3 Bft) W-NW -6.2 C -8.1 C
23.12.2001 02:00 -3.2 C 79 % 1009.7 hPa 0.0 l/m 5.9 km/h (2 Bft) NW -6.3 C -5.0 C
23.12.2001 03:00 -3.0 C 78 % 1009.9 hPa 0.0 l/m 17.6 km/h (3 Bft) W-NW -6.3 C -8.5 C
23.12.2001 04:00 -3.5 C 79 % 1009.7 hPa 0.0 l/m 7.9 km/h (2 Bft) S-SO -6.5 C -6.0 C
23.12.2001 05:00 -3.7 C 79 % 1009.8 hPa 0.0 l/m 1.1 km/h (0 Bft) SW -6.7 C -3.8 C
23.12.2001 06:00 -3.7 C 79 % 1010.8 hPa 0.0 l/m 1.7 km/h (1 Bft) SO -6.8 C -4.1 C
23.12.2001 07:00 -3.5 C 78 % 1010.8 hPa 0.0 l/m 2.8 km/h (1 Bft) S-SO -6.8 C -4.2 C
23.12.2001 08:00 -3.0 C 79 % 1011.5 hPa 0.0 l/m 9.1 km/h (2 Bft) W-NW -6.2 C -6.1 C
23.12.2001 09:00 -2.7 C 72 % 1012.0 hPa 0.0 l/m 8.0 km/h (2 Bft) NW -7.0 C -5.3 C
23.12.2001 10:00 -2.4 C 71 % 1012.8 hPa 0.0 l/m 6.3 km/h (2 Bft) W-NW -6.9 C -4.5 C
23.12.2001 11:00 -1.9 C 71 % 1012.8 hPa 0.0 l/m 4.5 km/h (1 Bft) SO -6.4 C -3.2 C
23.12.2001 12:00 -2.6 C 76 % 1012.8 hPa 0.0 l/m 7.2 km/h (2 Bft) SO -6.2 C -5.1 C
23.12.2001 13:00 -3.1 C 78 % 1012.8 hPa 0.3 l/m 0.2 km/h (0 Bft) W-SW -6.4 C -3.1 C
23.12.2001 14:00 -3.0 C 69 % 1012.8 hPa 0.3 l/m 1.1 km/h (1 Bft) N-NO -7.8 C -3.2 C
23.12.2001 15:00 -3.1 C 64 % 1013.7 hPa 0.0 l/m 1.3 km/h (1 Bft) O-SO -8.8 C -3.5 C
23.12.2001 16:00 -3.7 C 64 % 1014.2 hPa 0.0 l/m 1.3 km/h (1 Bft) O-NO -9.5 C -4.1 C
23.12.2001 17:00 -4.5 C 64 % 1014.9 hPa 0.0 l/m 6.0 km/h (2 Bft) N-NO -10.4 C -6.7 C
23.12.2001 18:00 -5.9 C 67 % 1015.7 hPa 0.0 l/m 1.7 km/h (1 Bft) N -11.1 C -6.3 C
23.12.2001 19:00 -5.8 C 65 % 1016.1 hPa 0.0 l/m 0.6 km/h (0 Bft) O -11.4 C -6.0 C
23.12.2001 20:00 -6.4 C 64 % 1017.0 hPa 0.0 l/m 2.4 km/h (1 Bft) S-SO -12.0 C -7.4 C
23.12.2001 21:00 -7.8 C 67 % 1017.0 hPa 0.0 l/m 1.1 km/h (0 Bft) N-NO -12.8 C -8.1 C
23.12.2001 22:00 -7.5 C 65 % 1017.3 hPa 0.0 l/m 1.0 km/h (0 Bft) O-NO -12.9 C -7.6 C
23.12.2001 23:00 -7.5 C 66 % 1018.1 hPa 0.0 l/m 0.5 km/h (0 Bft) O-SO -12.8 C -7.5 C
Min-Datum _ 18.12.01 18.12.01 22.12.01 - 17.12.01 - 23.12.01 21.12.01
_ Min-Zeit 00:57 13:51 05:00 - 00:05 - 21:32 09:45
Minimum _ -8.7 C 61 % 1006.6 hPa - 0.0 km/h (0 Bft) - -14.0 C -14.7 C
Max-Datum _ 22.12.01 22.12.01 17.12.01 22.12.01 22.12.01 - 22.12.01 22.12.01
_ Max-Zeit 13:55 07:55 09:08 03:00 20:55 - 08:31 13:55
Maximum _ 0.3 C 96 % 1031.6 hPa 1.3 l/m 51.0 km/h
W-NW (7 Bft)
- -1.6 C 0.3 C
Durchschnitt _ -3.7 C 76 % 1021.4 hPa #9.1 l/m 4.4 km/h (1 Bft) O-SO -7.3 C -5.0 C

Durchschnitt Minimum Temp.-4.1 C
Durchschnitt Maximum Temp.-3.3 C
© Kaiko 2001